sensor_id;sensor_type;location;lat;lon;timestamp;temperature;humidity
46416;DHT22;32620;51.704;7.822;2022-08-21T00:00:39;15.00;99.90
46416;DHT22;32620;51.704;7.822;2022-08-21T00:03:06;15.00;99.90
46416;DHT22;32620;51.704;7.822;2022-08-21T00:05:33;15.00;99.90
46416;DHT22;32620;51.704;7.822;2022-08-21T00:08:00;15.00;99.90
46416;DHT22;32620;51.704;7.822;2022-08-21T00:10:26;15.10;99.90
46416;DHT22;32620;51.704;7.822;2022-08-21T00:12:52;15.20;99.90
46416;DHT22;32620;51.704;7.822;2022-08-21T00:15:19;15.30;99.90
46416;DHT22;32620;51.704;7.822;2022-08-21T00:17:45;15.30;99.90
46416;DHT22;32620;51.704;7.822;2022-08-21T00:20:11;15.30;99.90
46416;DHT22;32620;51.704;7.822;2022-08-21T00:22:37;15.30;99.90
46416;DHT22;32620;51.704;7.822;2022-08-21T00:25:04;15.20;99.90
46416;DHT22;32620;51.704;7.822;2022-08-21T00:27:30;15.20;99.90
46416;DHT22;32620;51.704;7.822;2022-08-21T00:29:55;15.00;99.90
46416;DHT22;32620;51.704;7.822;2022-08-21T00:32:22;14.90;99.90
46416;DHT22;32620;51.704;7.822;2022-08-21T00:34:48;14.80;99.90
46416;DHT22;32620;51.704;7.822;2022-08-21T00:37:14;14.70;99.90
46416;DHT22;32620;51.704;7.822;2022-08-21T00:39:39;14.70;99.90
46416;DHT22;32620;51.704;7.822;2022-08-21T00:42:05;14.70;99.90
46416;DHT22;32620;51.704;7.822;2022-08-21T00:44:30;14.60;99.90
46416;DHT22;32620;51.704;7.822;2022-08-21T00:46:56;14.60;99.90
46416;DHT22;32620;51.704;7.822;2022-08-21T00:49:22;14.60;99.90
46416;DHT22;32620;51.704;7.822;2022-08-21T00:51:50;14.60;99.90
46416;DHT22;32620;51.704;7.822;2022-08-21T00:54:16;14.50;99.90
46416;DHT22;32620;51.704;7.822;2022-08-21T00:56:42;14.60;99.90
46416;DHT22;32620;51.704;7.822;2022-08-21T00:59:08;14.50;99.90
46416;DHT22;32620;51.704;7.822;2022-08-21T01:01:33;14.50;99.90
46416;DHT22;32620;51.704;7.822;2022-08-21T01:03:59;14.50;99.90
46416;DHT22;32620;51.704;7.822;2022-08-21T01:06:24;14.60;99.90
46416;DHT22;32620;51.704;7.822;2022-08-21T01:08:50;14.60;99.90
46416;DHT22;32620;51.704;7.822;2022-08-21T01:11:16;14.60;99.90
46416;DHT22;32620;51.704;7.822;2022-08-21T01:13:42;14.70;99.90
46416;DHT22;32620;51.704;7.822;2022-08-21T01:16:11;14.70;99.90
46416;DHT22;32620;51.704;7.822;2022-08-21T01:18:37;14.80;99.90
46416;DHT22;32620;51.704;7.822;2022-08-21T01:21:05;14.80;99.90
46416;DHT22;32620;51.704;7.822;2022-08-21T01:23:31;14.90;99.90
46416;DHT22;32620;51.704;7.822;2022-08-21T01:25:56;14.90;99.90
46416;DHT22;32620;51.704;7.822;2022-08-21T01:28:22;14.90;99.90
46416;DHT22;32620;51.704;7.822;2022-08-21T01:30:48;15.00;99.90
46416;DHT22;32620;51.704;7.822;2022-08-21T01:33:13;15.00;99.90
46416;DHT22;32620;51.704;7.822;2022-08-21T01:35:39;15.10;99.90
46416;DHT22;32620;51.704;7.822;2022-08-21T01:38:05;15.00;99.90
46416;DHT22;32620;51.704;7.822;2022-08-21T01:40:30;15.10;99.90
46416;DHT22;32620;51.704;7.822;2022-08-21T01:42:56;15.20;99.90
46416;DHT22;32620;51.704;7.822;2022-08-21T01:45:21;15.20;99.90
46416;DHT22;32620;51.704;7.822;2022-08-21T01:47:47;15.20;99.90
46416;DHT22;32620;51.704;7.822;2022-08-21T01:50:14;15.20;99.90
46416;DHT22;32620;51.704;7.822;2022-08-21T01:52:40;15.30;99.90
46416;DHT22;32620;51.704;7.822;2022-08-21T01:55:07;15.30;99.90
46416;DHT22;32620;51.704;7.822;2022-08-21T01:57:32;15.40;99.90
46416;DHT22;32620;51.704;7.822;2022-08-21T01:59:58;15.40;99.90
46416;DHT22;32620;51.704;7.822;2022-08-21T02:02:24;15.50;99.90
46416;DHT22;32620;51.704;7.822;2022-08-21T02:04:49;15.50;99.90
46416;DHT22;32620;51.704;7.822;2022-08-21T02:07:15;15.60;99.90
46416;DHT22;32620;51.704;7.822;2022-08-21T02:09:40;15.60;99.90
46416;DHT22;32620;51.704;7.822;2022-08-21T02:12:08;15.70;99.90
46416;DHT22;32620;51.704;7.822;2022-08-21T02:14:34;15.80;99.90
46416;DHT22;32620;51.704;7.822;2022-08-21T02:17:00;15.80;99.90
46416;DHT22;32620;51.704;7.822;2022-08-21T02:19:25;15.90;99.90
46416;DHT22;32620;51.704;7.822;2022-08-21T02:21:51;15.90;99.90
46416;DHT22;32620;51.704;7.822;2022-08-21T02:24:16;15.90;99.90
46416;DHT22;32620;51.704;7.822;2022-08-21T02:26:42;15.90;99.90
46416;DHT22;32620;51.704;7.822;2022-08-21T02:29:07;15.90;99.90
46416;DHT22;32620;51.704;7.822;2022-08-21T02:31:33;15.90;99.90
46416;DHT22;32620;51.704;7.822;2022-08-21T02:33:59;15.90;99.90
46416;DHT22;32620;51.704;7.822;2022-08-21T02:36:25;15.80;99.90
46416;DHT22;32620;51.704;7.822;2022-08-21T02:38:50;15.80;99.90
46416;DHT22;32620;51.704;7.822;2022-08-21T02:41:18;15.80;99.90
46416;DHT22;32620;51.704;7.822;2022-08-21T02:43:44;15.70;99.90
46416;DHT22;32620;51.704;7.822;2022-08-21T02:46:11;15.60;99.90
46416;DHT22;32620;51.704;7.822;2022-08-21T02:48:37;15.50;99.90
46416;DHT22;32620;51.704;7.822;2022-08-21T02:51:04;15.40;99.90
46416;DHT22;32620;51.704;7.822;2022-08-21T02:53:30;15.40;99.90
46416;DHT22;32620;51.704;7.822;2022-08-21T02:55:56;15.40;99.90
46416;DHT22;32620;51.704;7.822;2022-08-21T02:58:24;15.40;99.90
46416;DHT22;32620;51.704;7.822;2022-08-21T03:00:50;15.40;99.90
46416;DHT22;32620;51.704;7.822;2022-08-21T03:03:16;15.40;99.90
46416;DHT22;32620;51.704;7.822;2022-08-21T03:05:42;15.40;99.90
46416;DHT22;32620;51.704;7.822;2022-08-21T03:08:08;15.30;99.90
46416;DHT22;32620;51.704;7.822;2022-08-21T03:10:36;15.30;99.90
46416;DHT22;32620;51.704;7.822;2022-08-21T03:13:02;15.30;99.90
46416;DHT22;32620;51.704;7.822;2022-08-21T03:15:28;15.30;99.90
46416;DHT22;32620;51.704;7.822;2022-08-21T03:17:54;15.20;99.90
46416;DHT22;32620;51.704;7.822;2022-08-21T03:20:20;15.20;99.90
46416;DHT22;32620;51.704;7.822;2022-08-21T03:22:47;15.20;99.90
46416;DHT22;32620;51.704;7.822;2022-08-21T03:25:12;15.10;99.90
46416;DHT22;32620;51.704;7.822;2022-08-21T03:27:38;15.00;99.90
46416;DHT22;32620;51.704;7.822;2022-08-21T03:30:04;15.00;99.90
46416;DHT22;32620;51.704;7.822;2022-08-21T03:32:31;14.90;99.90
46416;DHT22;32620;51.704;7.822;2022-08-21T03:34:57;14.80;99.90
46416;DHT22;32620;51.704;7.822;2022-08-21T03:37:22;14.70;99.90
46416;DHT22;32620;51.704;7.822;2022-08-21T03:39:49;14.70;99.90
46416;DHT22;32620;51.704;7.822;2022-08-21T03:42:14;14.60;99.90
46416;DHT22;32620;51.704;7.822;2022-08-21T03:44:40;14.50;99.90
46416;DHT22;32620;51.704;7.822;2022-08-21T03:47:05;14.50;99.90
46416;DHT22;32620;51.704;7.822;2022-08-21T03:49:31;14.40;99.90
46416;DHT22;32620;51.704;7.822;2022-08-21T03:51:57;14.30;99.90
46416;DHT22;32620;51.704;7.822;2022-08-21T03:54:22;14.30;99.90
46416;DHT22;32620;51.704;7.822;2022-08-21T03:56:48;14.30;99.90
46416;DHT22;32620;51.704;7.822;2022-08-21T03:59:13;14.20;99.90
46416;DHT22;32620;51.704;7.822;2022-08-21T04:01:39;14.20;99.90
46416;DHT22;32620;51.704;7.822;2022-08-21T04:04:04;14.10;99.90
46416;DHT22;32620;51.704;7.822;2022-08-21T04:06:30;14.10;99.90
46416;DHT22;32620;51.704;7.822;2022-08-21T04:08:55;14.10;99.90
46416;DHT22;32620;51.704;7.822;2022-08-21T04:11:21;14.00;99.90
46416;DHT22;32620;51.704;7.822;2022-08-21T04:13:47;14.00;99.90
46416;DHT22;32620;51.704;7.822;2022-08-21T04:16:13;13.90;99.90
46416;DHT22;32620;51.704;7.822;2022-08-21T04:18:39;13.90;99.90
46416;DHT22;32620;51.704;7.822;2022-08-21T04:21:04;13.90;99.90
46416;DHT22;32620;51.704;7.822;2022-08-21T04:23:30;13.90;99.90
46416;DHT22;32620;51.704;7.822;2022-08-21T04:25:56;13.80;99.90
46416;DHT22;32620;51.704;7.822;2022-08-21T04:28:23;13.80;99.90
46416;DHT22;32620;51.704;7.822;2022-08-21T04:30:49;13.80;99.90
46416;DHT22;32620;51.704;7.822;2022-08-21T04:33:15;13.80;99.90
46416;DHT22;32620;51.704;7.822;2022-08-21T04:35:41;13.80;99.90
46416;DHT22;32620;51.704;7.822;2022-08-21T04:38:07;13.70;99.90
46416;DHT22;32620;51.704;7.822;2022-08-21T04:40:32;13.70;99.90
46416;DHT22;32620;51.704;7.822;2022-08-21T04:43:00;13.80;99.90
46416;DHT22;32620;51.704;7.822;2022-08-21T04:45:28;13.80;99.90
46416;DHT22;32620;51.704;7.822;2022-08-21T04:47:55;13.80;99.90
46416;DHT22;32620;51.704;7.822;2022-08-21T04:50:22;13.80;99.90
46416;DHT22;32620;51.704;7.822;2022-08-21T04:52:49;13.90;99.90
46416;DHT22;32620;51.704;7.822;2022-08-21T04:55:16;13.90;99.90
46416;DHT22;32620;51.704;7.822;2022-08-21T04:57:41;14.00;99.90
46416;DHT22;32620;51.704;7.822;2022-08-21T05:00:07;14.10;99.90
46416;DHT22;32620;51.704;7.822;2022-08-21T05:02:34;14.10;99.90
46416;DHT22;32620;51.704;7.822;2022-08-21T05:05:01;14.20;99.90
46416;DHT22;32620;51.704;7.822;2022-08-21T05:07:27;14.20;99.90
46416;DHT22;32620;51.704;7.822;2022-08-21T05:09:53;14.30;99.90
46416;DHT22;32620;51.704;7.822;2022-08-21T05:12:19;14.40;99.90
46416;DHT22;32620;51.704;7.822;2022-08-21T05:14:44;14.50;99.90
46416;DHT22;32620;51.704;7.822;2022-08-21T05:17:10;14.60;99.90
46416;DHT22;32620;51.704;7.822;2022-08-21T05:19:35;14.70;99.90
46416;DHT22;32620;51.704;7.822;2022-08-21T05:22:01;14.80;99.90
46416;DHT22;32620;51.704;7.822;2022-08-21T05:24:27;14.90;99.90
46416;DHT22;32620;51.704;7.822;2022-08-21T05:26:53;15.00;99.90
46416;DHT22;32620;51.704;7.822;2022-08-21T05:29:18;15.10;99.90
46416;DHT22;32620;51.704;7.822;2022-08-21T05:31:44;15.30;99.90
46416;DHT22;32620;51.704;7.822;2022-08-21T05:34:11;15.40;99.90
46416;DHT22;32620;51.704;7.822;2022-08-21T05:36:36;15.60;99.90
46416;DHT22;32620;51.704;7.822;2022-08-21T05:39:02;15.70;99.90
46416;DHT22;32620;51.704;7.822;2022-08-21T05:41:27;15.90;99.90
46416;DHT22;32620;51.704;7.822;2022-08-21T05:43:53;16.10;99.90
46416;DHT22;32620;51.704;7.822;2022-08-21T05:46:18;16.60;99.90
46416;DHT22;32620;51.704;7.822;2022-08-21T05:48:44;17.50;99.90
46416;DHT22;32620;51.704;7.822;2022-08-21T05:51:11;19.10;99.90
46416;DHT22;32620;51.704;7.822;2022-08-21T05:53:37;20.70;99.90
46416;DHT22;32620;51.704;7.822;2022-08-21T05:56:03;22.50;99.90
46416;DHT22;32620;51.704;7.822;2022-08-21T05:58:29;23.00;99.90
46416;DHT22;32620;51.704;7.822;2022-08-21T06:00:55;23.40;99.90
46416;DHT22;32620;51.704;7.822;2022-08-21T06:03:23;24.10;99.90
46416;DHT22;32620;51.704;7.822;2022-08-21T06:05:49;25.10;99.90
46416;DHT22;32620;51.704;7.822;2022-08-21T06:08:15;25.40;99.90
46416;DHT22;32620;51.704;7.822;2022-08-21T06:10:42;25.60;99.90
46416;DHT22;32620;51.704;7.822;2022-08-21T06:13:08;26.60;99.90
46416;DHT22;32620;51.704;7.822;2022-08-21T06:15:34;26.90;99.90
46416;DHT22;32620;51.704;7.822;2022-08-21T06:17:59;26.90;99.90
46416;DHT22;32620;51.704;7.822;2022-08-21T06:20:25;27.20;99.90
46416;DHT22;32620;51.704;7.822;2022-08-21T06:22:50;26.80;99.90
46416;DHT22;32620;51.704;7.822;2022-08-21T06:25:16;26.60;99.90
46416;DHT22;32620;51.704;7.822;2022-08-21T06:27:42;26.90;99.90
46416;DHT22;32620;51.704;7.822;2022-08-21T06:30:07;26.90;99.90
46416;DHT22;32620;51.704;7.822;2022-08-21T06:32:34;26.80;99.90
46416;DHT22;32620;51.704;7.822;2022-08-21T06:34:59;27.40;99.60
46416;DHT22;32620;51.704;7.822;2022-08-21T06:37:25;27.40;99.70
46416;DHT22;32620;51.704;7.822;2022-08-21T06:39:50;27.20;99.50
46416;DHT22;32620;51.704;7.822;2022-08-21T06:42:16;26.40;99.90
46416;DHT22;32620;51.704;7.822;2022-08-21T06:44:42;26.30;99.90
46416;DHT22;32620;51.704;7.822;2022-08-21T06:47:08;27.30;99.90
46416;DHT22;32620;51.704;7.822;2022-08-21T06:49:33;27.30;99.90
46416;DHT22;32620;51.704;7.822;2022-08-21T06:52:00;27.20;99.90
46416;DHT22;32620;51.704;7.822;2022-08-21T06:54:25;27.20;99.80
46416;DHT22;32620;51.704;7.822;2022-08-21T06:56:51;26.80;99.50
46416;DHT22;32620;51.704;7.822;2022-08-21T06:59:16;26.50;99.90
46416;DHT22;32620;51.704;7.822;2022-08-21T07:01:42;28.00;98.50
46416;DHT22;32620;51.704;7.822;2022-08-21T07:04:07;28.60;96.60
46416;DHT22;32620;51.704;7.822;2022-08-21T07:06:33;27.50;97.80
46416;DHT22;32620;51.704;7.822;2022-08-21T07:08:58;26.70;98.60
46416;DHT22;32620;51.704;7.822;2022-08-21T07:11:24;26.80;98.30
46416;DHT22;32620;51.704;7.822;2022-08-21T07:13:50;27.20;98.10
46416;DHT22;32620;51.704;7.822;2022-08-21T07:16:18;27.00;98.60
46416;DHT22;32620;51.704;7.822;2022-08-21T07:18:43;26.60;98.30
46416;DHT22;32620;51.704;7.822;2022-08-21T07:21:09;26.90;99.30
46416;DHT22;32620;51.704;7.822;2022-08-21T07:23:36;27.90;98.20
46416;DHT22;32620;51.704;7.822;2022-08-21T07:26:02;28.80;95.20
46416;DHT22;32620;51.704;7.822;2022-08-21T07:28:28;29.50;94.90
46416;DHT22;32620;51.704;7.822;2022-08-21T07:30:55;29.20;94.10
46416;DHT22;32620;51.704;7.822;2022-08-21T07:33:21;28.80;94.20
46416;DHT22;32620;51.704;7.822;2022-08-21T07:35:47;28.20;95.00
46416;DHT22;32620;51.704;7.822;2022-08-21T07:38:12;27.60;96.60
46416;DHT22;32620;51.704;7.822;2022-08-21T07:40:38;27.50;97.10
46416;DHT22;32620;51.704;7.822;2022-08-21T07:43:04;26.70;98.30
46416;DHT22;32620;51.704;7.822;2022-08-21T07:47:55;26.10;99.30
46416;DHT22;32620;51.704;7.822;2022-08-21T07:50:21;26.20;99.00
46416;DHT22;32620;51.704;7.822;2022-08-21T07:52:46;26.50;98.60
46416;DHT22;32620;51.704;7.822;2022-08-21T07:55:13;26.20;98.40
46416;DHT22;32620;51.704;7.822;2022-08-21T07:57:39;26.20;99.30
46416;DHT22;32620;51.704;7.822;2022-08-21T08:00:07;26.20;98.60
46416;DHT22;32620;51.704;7.822;2022-08-21T08:02:33;26.90;98.20
46416;DHT22;32620;51.704;7.822;2022-08-21T08:05:00;26.10;98.70
46416;DHT22;32620;51.704;7.822;2022-08-21T08:07:26;26.70;97.80
46416;DHT22;32620;51.704;7.822;2022-08-21T08:09:51;26.80;97.50
46416;DHT22;32620;51.704;7.822;2022-08-21T08:12:17;27.20;97.60
46416;DHT22;32620;51.704;7.822;2022-08-21T08:14:43;26.00;98.20
46416;DHT22;32620;51.704;7.822;2022-08-21T08:17:09;26.00;99.10
46416;DHT22;32620;51.704;7.822;2022-08-21T08:19:34;25.90;99.90
46416;DHT22;32620;51.704;7.822;2022-08-21T08:22:00;25.60;99.90
46416;DHT22;32620;51.704;7.822;2022-08-21T08:24:25;26.10;99.60
46416;DHT22;32620;51.704;7.822;2022-08-21T08:26:51;25.80;99.50
46416;DHT22;32620;51.704;7.822;2022-08-21T08:29:16;25.70;99.90
46416;DHT22;32620;51.704;7.822;2022-08-21T08:31:42;26.20;98.70
46416;DHT22;32620;51.704;7.822;2022-08-21T08:34:07;27.00;99.00
46416;DHT22;32620;51.704;7.822;2022-08-21T08:36:34;26.70;98.60
46416;DHT22;32620;51.704;7.822;2022-08-21T08:39:00;25.80;99.10
46416;DHT22;32620;51.704;7.822;2022-08-21T08:41:26;25.30;99.50
46416;DHT22;32620;51.704;7.822;2022-08-21T08:43:53;25.20;99.90
46416;DHT22;32620;51.704;7.822;2022-08-21T08:46:20;25.00;99.90
46416;DHT22;32620;51.704;7.822;2022-08-21T08:48:52;25.40;99.80
46416;DHT22;32620;51.704;7.822;2022-08-21T08:51:20;24.90;99.90
46416;DHT22;32620;51.704;7.822;2022-08-21T08:53:49;25.50;99.90
46416;DHT22;32620;51.704;7.822;2022-08-21T08:56:16;25.60;99.00
46416;DHT22;32620;51.704;7.822;2022-08-21T08:58:43;25.10;99.50
46416;DHT22;32620;51.704;7.822;2022-08-21T09:01:15;25.40;99.30
46416;DHT22;32620;51.704;7.822;2022-08-21T09:03:41;25.20;99.90
46416;DHT22;32620;51.704;7.822;2022-08-21T09:09:08;25.60;99.20
46416;DHT22;32620;51.704;7.822;2022-08-21T09:11:40;25.70;99.50
46416;DHT22;32620;51.704;7.822;2022-08-21T09:17:13;26.70;98.10
46416;DHT22;32620;51.704;7.822;2022-08-21T09:22:08;24.80;99.90
46416;DHT22;32620;51.704;7.822;2022-08-21T09:24:40;25.20;99.90
46416;DHT22;32620;51.704;7.822;2022-08-21T09:27:10;25.30;99.20
46416;DHT22;32620;51.704;7.822;2022-08-21T09:29:38;25.50;97.50
46416;DHT22;32620;51.704;7.822;2022-08-21T09:32:05;25.60;98.70
46416;DHT22;32620;51.704;7.822;2022-08-21T09:34:34;25.80;97.90
46416;DHT22;32620;51.704;7.822;2022-08-21T09:39:29;24.20;99.10
46416;DHT22;32620;51.704;7.822;2022-08-21T09:41:56;24.70;99.90
46416;DHT22;32620;51.704;7.822;2022-08-21T09:44:26;24.40;99.90
46416;DHT22;32620;51.704;7.822;2022-08-21T09:46:52;25.00;99.10
46416;DHT22;32620;51.704;7.822;2022-08-21T09:49:26;25.70;98.30
46416;DHT22;32620;51.704;7.822;2022-08-21T09:51:52;26.40;97.10
46416;DHT22;32620;51.704;7.822;2022-08-21T09:54:19;26.90;97.00
46416;DHT22;32620;51.704;7.822;2022-08-21T09:59:51;27.00;94.80
46416;DHT22;32620;51.704;7.822;2022-08-21T10:02:32;25.80;96.40
46416;DHT22;32620;51.704;7.822;2022-08-21T10:05:00;25.60;97.90
46416;DHT22;32620;51.704;7.822;2022-08-21T10:07:27;25.20;97.60
46416;DHT22;32620;51.704;7.822;2022-08-21T10:10:13;25.60;98.70
46416;DHT22;32620;51.704;7.822;2022-08-21T10:12:41;26.10;97.40
46416;DHT22;32620;51.704;7.822;2022-08-21T10:15:15;25.80;96.40
46416;DHT22;32620;51.704;7.822;2022-08-21T10:20:31;25.30;96.10
46416;DHT22;32620;51.704;7.822;2022-08-21T10:25:50;24.70;96.50
46416;DHT22;32620;51.704;7.822;2022-08-21T10:28:19;25.60;97.40
46416;DHT22;32620;51.704;7.822;2022-08-21T10:30:50;26.00;93.80
46416;DHT22;32620;51.704;7.822;2022-08-21T10:36:07;26.00;94.20
46416;DHT22;32620;51.704;7.822;2022-08-21T10:41:38;26.30;93.60
46416;DHT22;32620;51.704;7.822;2022-08-21T10:44:10;26.50;92.80
46416;DHT22;32620;51.704;7.822;2022-08-21T10:46:42;26.60;93.20
46416;DHT22;32620;51.704;7.822;2022-08-21T10:54:51;25.90;94.20
46416;DHT22;32620;51.704;7.822;2022-08-21T10:57:21;26.20;93.10
46416;DHT22;32620;51.704;7.822;2022-08-21T10:59:49;26.40;92.70
46416;DHT22;32620;51.704;7.822;2022-08-21T11:02:33;26.20;91.40
46416;DHT22;32620;51.704;7.822;2022-08-21T11:05:05;25.60;92.40
46416;DHT22;32620;51.704;7.822;2022-08-21T11:07:33;25.70;92.80
46416;DHT22;32620;51.704;7.822;2022-08-21T11:10:02;25.60;94.10
46416;DHT22;32620;51.704;7.822;2022-08-21T11:12:31;26.20;92.70
46416;DHT22;32620;51.704;7.822;2022-08-21T11:15:03;26.00;92.10
46416;DHT22;32620;51.704;7.822;2022-08-21T11:17:35;25.70;92.20
46416;DHT22;32620;51.704;7.822;2022-08-21T11:20:08;25.50;92.30
46416;DHT22;32620;51.704;7.822;2022-08-21T11:25:21;25.80;94.80
46416;DHT22;32620;51.704;7.822;2022-08-21T11:27:50;25.50;95.30
46416;DHT22;32620;51.704;7.822;2022-08-21T11:30:17;25.70;94.10
46416;DHT22;32620;51.704;7.822;2022-08-21T11:32:46;26.10;94.20
46416;DHT22;32620;51.704;7.822;2022-08-21T11:35:26;26.10;94.30
46416;DHT22;32620;51.704;7.822;2022-08-21T11:43:26;26.30;91.50
46416;DHT22;32620;51.704;7.822;2022-08-21T11:46:03;26.80;91.40
46416;DHT22;32620;51.704;7.822;2022-08-21T11:49:11;26.30;91.40
46416;DHT22;32620;51.704;7.822;2022-08-21T11:51:21;26.30;92.60
46416;DHT22;32620;51.704;7.822;2022-08-21T11:53:50;26.40;91.90
46416;DHT22;32620;51.704;7.822;2022-08-21T11:56:19;25.90;91.40
46416;DHT22;32620;51.704;7.822;2022-08-21T11:58:49;26.20;91.70
46416;DHT22;32620;51.704;7.822;2022-08-21T12:01:17;26.50;90.30
46416;DHT22;32620;51.704;7.822;2022-08-21T12:03:54;26.50;90.90
46416;DHT22;32620;51.704;7.822;2022-08-21T12:06:28;26.50;90.20
46416;DHT22;32620;51.704;7.822;2022-08-21T12:08:58;26.40;90.50
46416;DHT22;32620;51.704;7.822;2022-08-21T12:11:24;26.60;90.40
46416;DHT22;32620;51.704;7.822;2022-08-21T12:13:53;26.70;89.50
46416;DHT22;32620;51.704;7.822;2022-08-21T12:16:50;27.00;90.40
46416;DHT22;32620;51.704;7.822;2022-08-21T12:21:49;26.20;89.10
46416;DHT22;32620;51.704;7.822;2022-08-21T12:26:57;26.60;91.00
46416;DHT22;32620;51.704;7.822;2022-08-21T12:29:31;26.80;90.50
46416;DHT22;32620;51.704;7.822;2022-08-21T12:34:42;26.80;90.10
46416;DHT22;32620;51.704;7.822;2022-08-21T12:37:15;27.00;89.60
46416;DHT22;32620;51.704;7.822;2022-08-21T12:39:43;27.00;90.20
46416;DHT22;32620;51.704;7.822;2022-08-21T12:42:29;27.00;88.50
46416;DHT22;32620;51.704;7.822;2022-08-21T12:44:56;27.20;89.80
46416;DHT22;32620;51.704;7.822;2022-08-21T12:47:32;27.10;85.90
46416;DHT22;32620;51.704;7.822;2022-08-21T12:50:08;26.70;86.40
46416;DHT22;32620;51.704;7.822;2022-08-21T12:52:39;26.50;88.00
46416;DHT22;32620;51.704;7.822;2022-08-21T12:55:07;26.60;85.80
46416;DHT22;32620;51.704;7.822;2022-08-21T12:57:36;26.30;86.00
46416;DHT22;32620;51.704;7.822;2022-08-21T13:00:04;26.40;86.40
46416;DHT22;32620;51.704;7.822;2022-08-21T13:02:33;26.70;87.00
46416;DHT22;32620;51.704;7.822;2022-08-21T13:05:03;26.60;86.10
46416;DHT22;32620;51.704;7.822;2022-08-21T13:07:31;26.30;87.30
46416;DHT22;32620;51.704;7.822;2022-08-21T13:09:59;26.40;87.40
46416;DHT22;32620;51.704;7.822;2022-08-21T13:12:25;26.80;88.10
46416;DHT22;32620;51.704;7.822;2022-08-21T13:14:52;26.80;84.30
46416;DHT22;32620;51.704;7.822;2022-08-21T13:17:20;26.40;87.40
46416;DHT22;32620;51.704;7.822;2022-08-21T13:20:04;26.90;88.40
46416;DHT22;32620;51.704;7.822;2022-08-21T13:22:30;26.80;84.30
46416;DHT22;32620;51.704;7.822;2022-08-21T13:24:56;26.90;87.20
46416;DHT22;32620;51.704;7.822;2022-08-21T13:27:24;27.10;86.20
46416;DHT22;32620;51.704;7.822;2022-08-21T13:30:00;26.60;86.20
46416;DHT22;32620;51.704;7.822;2022-08-21T13:32:25;26.80;87.50
46416;DHT22;32620;51.704;7.822;2022-08-21T13:34:51;26.80;83.30
46416;DHT22;32620;51.704;7.822;2022-08-21T13:37:17;26.90;85.20
46416;DHT22;32620;51.704;7.822;2022-08-21T13:39:48;26.80;84.30
46416;DHT22;32620;51.704;7.822;2022-08-21T13:42:13;26.80;85.80
46416;DHT22;32620;51.704;7.822;2022-08-21T13:44:40;26.70;84.30
46416;DHT22;32620;51.704;7.822;2022-08-21T13:47:06;26.20;83.90
46416;DHT22;32620;51.704;7.822;2022-08-21T13:49:36;26.20;85.50
46416;DHT22;32620;51.704;7.822;2022-08-21T13:52:03;26.40;87.10
46416;DHT22;32620;51.704;7.822;2022-08-21T13:54:33;26.50;84.10
46416;DHT22;32620;51.704;7.822;2022-08-21T13:56:59;26.70;86.40
46416;DHT22;32620;51.704;7.822;2022-08-21T13:59:25;26.60;85.40
46416;DHT22;32620;51.704;7.822;2022-08-21T14:01:52;26.30;83.10
46416;DHT22;32620;51.704;7.822;2022-08-21T14:04:23;26.50;83.00
46416;DHT22;32620;51.704;7.822;2022-08-21T14:06:49;26.50;83.90
46416;DHT22;32620;51.704;7.822;2022-08-21T14:09:22;26.50;85.10
46416;DHT22;32620;51.704;7.822;2022-08-21T14:11:50;26.60;84.20
46416;DHT22;32620;51.704;7.822;2022-08-21T14:14:19;26.50;84.60
46416;DHT22;32620;51.704;7.822;2022-08-21T14:16:52;26.70;84.30
46416;DHT22;32620;51.704;7.822;2022-08-21T14:19:20;26.50;85.10
46416;DHT22;32620;51.704;7.822;2022-08-21T14:21:46;26.60;84.90
46416;DHT22;32620;51.704;7.822;2022-08-21T14:24:28;26.70;83.00
46416;DHT22;32620;51.704;7.822;2022-08-21T14:26:55;26.50;81.60
46416;DHT22;32620;51.704;7.822;2022-08-21T14:29:22;26.30;83.30
46416;DHT22;32620;51.704;7.822;2022-08-21T14:31:50;26.30;83.90
46416;DHT22;32620;51.704;7.822;2022-08-21T14:34:16;26.60;83.90
46416;DHT22;32620;51.704;7.822;2022-08-21T14:36:42;26.80;84.20
46416;DHT22;32620;51.704;7.822;2022-08-21T14:39:08;27.00;83.20
46416;DHT22;32620;51.704;7.822;2022-08-21T14:41:33;26.50;81.40
46416;DHT22;32620;51.704;7.822;2022-08-21T14:43:59;26.50;84.60
46416;DHT22;32620;51.704;7.822;2022-08-21T14:46:25;26.80;83.20
46416;DHT22;32620;51.704;7.822;2022-08-21T14:48:52;26.60;81.00
46416;DHT22;32620;51.704;7.822;2022-08-21T14:51:18;26.50;81.30
46416;DHT22;32620;51.704;7.822;2022-08-21T14:53:43;26.60;80.90
46416;DHT22;32620;51.704;7.822;2022-08-21T14:56:09;26.40;80.40
46416;DHT22;32620;51.704;7.822;2022-08-21T14:58:37;26.20;81.10
46416;DHT22;32620;51.704;7.822;2022-08-21T15:01:03;26.20;82.40
46416;DHT22;32620;51.704;7.822;2022-08-21T15:03:30;26.20;81.90
46416;DHT22;32620;51.704;7.822;2022-08-21T15:05:57;26.50;82.10
46416;DHT22;32620;51.704;7.822;2022-08-21T15:08:23;26.70;83.00
46416;DHT22;32620;51.704;7.822;2022-08-21T15:10:48;26.80;81.50
46416;DHT22;32620;51.704;7.822;2022-08-21T15:13:14;26.80;81.10
46416;DHT22;32620;51.704;7.822;2022-08-21T15:15:40;26.70;82.10
46416;DHT22;32620;51.704;7.822;2022-08-21T15:18:06;26.60;79.50
46416;DHT22;32620;51.704;7.822;2022-08-21T15:20:32;26.30;81.20
46416;DHT22;32620;51.704;7.822;2022-08-21T15:22:58;26.00;82.40
46416;DHT22;32620;51.704;7.822;2022-08-21T15:25:24;25.90;83.70
46416;DHT22;32620;51.704;7.822;2022-08-21T15:27:49;25.50;82.90
46416;DHT22;32620;51.704;7.822;2022-08-21T15:30:15;25.40;85.00
46416;DHT22;32620;51.704;7.822;2022-08-21T15:32:40;25.40;86.90
46416;DHT22;32620;51.704;7.822;2022-08-21T15:35:07;25.40;87.00
46416;DHT22;32620;51.704;7.822;2022-08-21T15:37:33;25.20;86.80
46416;DHT22;32620;51.704;7.822;2022-08-21T15:39:58;25.20;86.90
46416;DHT22;32620;51.704;7.822;2022-08-21T15:42:24;25.20;86.60
46416;DHT22;32620;51.704;7.822;2022-08-21T15:44:51;25.20;86.60
46416;DHT22;32620;51.704;7.822;2022-08-21T15:47:19;25.20;88.10
46416;DHT22;32620;51.704;7.822;2022-08-21T15:49:46;25.10;87.30
46416;DHT22;32620;51.704;7.822;2022-08-21T15:52:13;25.10;87.90
46416;DHT22;32620;51.704;7.822;2022-08-21T15:54:39;25.10;87.90
46416;DHT22;32620;51.704;7.822;2022-08-21T15:57:05;25.20;87.70
46416;DHT22;32620;51.704;7.822;2022-08-21T15:59:31;25.20;88.70
46416;DHT22;32620;51.704;7.822;2022-08-21T16:01:57;25.30;88.70
46416;DHT22;32620;51.704;7.822;2022-08-21T16:04:24;25.20;89.00
46416;DHT22;32620;51.704;7.822;2022-08-21T16:06:50;25.20;89.30
46416;DHT22;32620;51.704;7.822;2022-08-21T16:09:16;25.20;89.30
46416;DHT22;32620;51.704;7.822;2022-08-21T16:11:42;25.10;90.10
46416;DHT22;32620;51.704;7.822;2022-08-21T16:14:08;25.10;90.30
46416;DHT22;32620;51.704;7.822;2022-08-21T16:16:35;25.20;89.60
46416;DHT22;32620;51.704;7.822;2022-08-21T16:19:01;25.40;90.00